createdAt,value
2022-09-12T00:00:00.201Z,65.52
2022-09-12T00:02:28.246Z,66.21
2022-09-12T00:04:55.634Z,66.30
2022-09-12T00:07:22.968Z,66.60
2022-09-12T00:09:50.627Z,66.57
2022-09-12T00:12:19.851Z,66.85
2022-09-12T00:14:55.671Z,66.50
2022-09-12T00:17:23.445Z,67.58
2022-09-12T00:21:08.471Z,69.95
2022-09-12T00:23:35.703Z,67.92
2022-09-12T00:26:08.848Z,68.94
2022-09-12T00:28:38.153Z,68.97
2022-09-12T00:35:33.854Z,68.83
2022-09-12T00:38:01.390Z,69.48
2022-09-12T00:40:54.749Z,71.60
2022-09-12T00:43:31.423Z,71.54
2022-09-12T00:46:01.844Z,70.09
2022-09-12T00:48:52.747Z,71.64
2022-09-12T00:51:21.227Z,70.58
2022-09-12T00:53:55.049Z,71.43
2022-09-12T00:56:24.679Z,70.44
2022-09-12T00:59:01.109Z,71.79
2022-09-12T01:01:32.325Z,71.72
2022-09-12T01:04:04.188Z,71.78
2022-09-12T01:06:39.338Z,72.99
2022-09-12T01:09:16.754Z,71.92
2022-09-12T01:11:47.471Z,72.51
2022-09-12T01:14:18.654Z,72.34
2022-09-12T01:16:47.728Z,72.05
2022-09-12T01:19:48.751Z,73.56
2022-09-12T01:22:50.735Z,75.78
2022-09-12T01:25:40.984Z,74.70
2022-09-12T01:28:41.776Z,75.08
2022-09-12T01:31:35.136Z,75.68
2022-09-12T01:34:09.603Z,74.19
2022-09-12T01:36:50.378Z,73.26
2022-09-12T01:39:40.641Z,73.63
2022-09-12T01:42:13.346Z,72.48
2022-09-12T01:45:09.311Z,72.63
2022-09-12T01:47:50.521Z,72.77
2022-09-12T01:50:33.250Z,72.19
2022-09-12T01:53:26.332Z,72.73
2022-09-12T01:56:22.803Z,72.68
2022-09-12T01:59:35.683Z,73.28
2022-09-12T02:02:16.774Z,72.60
2022-09-12T02:05:01.632Z,72.76
2022-09-12T02:07:45.820Z,73.87
2022-09-12T02:10:32.718Z,73.67
2022-09-12T02:13:11.398Z,73.06
2022-09-12T02:15:51.188Z,72.90
2022-09-12T02:18:21.531Z,73.12
2022-09-12T02:20:55.114Z,72.80
2022-09-12T02:23:29.759Z,72.84
2022-09-12T02:26:04.927Z,73.24
2022-09-12T02:28:37.835Z,72.74
2022-09-12T02:31:17.558Z,73.88
2022-09-12T02:34:03.039Z,75.38
2022-09-12T02:36:57.211Z,74.18
2022-09-12T02:39:25.681Z,73.38
2022-09-12T02:41:59.528Z,74.04
2022-09-12T02:44:31.354Z,74.67
2022-09-12T02:47:09.102Z,75.27
2022-09-12T02:49:36.574Z,74.92
2022-09-12T02:52:05.802Z,75.54
2022-09-12T02:54:33.774Z,75.29
2022-09-12T02:57:04.625Z,75.09
2022-09-12T02:59:32.477Z,75.53
2022-09-12T03:02:32.949Z,76.89
2022-09-12T03:05:26.292Z,75.90
2022-09-12T03:08:00.014Z,75.20
2022-09-12T03:10:39.715Z,75.63
2022-09-12T03:13:21.219Z,77.55
2022-09-12T03:16:21.354Z,76.64
2022-09-12T03:19:13.501Z,79.03
2022-09-12T03:22:04.212Z,79.02
2022-09-12T03:24:40.172Z,78.89
2022-09-12T03:27:16.986Z,79.23
2022-09-12T03:29:49.125Z,78.67
2022-09-12T03:32:16.655Z,77.67
2022-09-12T03:34:44.195Z,77.03
2022-09-12T03:37:11.689Z,77.33
2022-09-12T03:39:54.936Z,77.39
2022-09-12T03:42:31.326Z,77.12
2022-09-12T03:44:59.406Z,77.95
2022-09-12T03:47:27.206Z,79.08
2022-09-12T03:49:55.793Z,79.28
2022-09-12T03:52:23.645Z,78.68
2022-09-12T03:54:52.425Z,79.58
2022-09-12T03:57:20.512Z,78.75
2022-09-12T03:59:51.605Z,79.17
2022-09-12T04:02:21.887Z,78.94
2022-09-12T04:04:51.740Z,79.26
2022-09-12T04:07:19.506Z,78.94
2022-09-12T04:09:53.741Z,79.68
2022-09-12T04:12:21.383Z,79.47
2022-09-12T04:14:52.192Z,80.35
2022-09-12T04:17:19.640Z,79.34
2022-09-12T04:19:47.204Z,79.74
2022-09-12T04:22:14.655Z,79.97
2022-09-12T04:24:42.981Z,79.76
2022-09-12T04:27:10.410Z,79.57
2022-09-12T04:29:37.805Z,79.88
2022-09-12T04:32:05.468Z,80.02
2022-09-12T04:34:33.107Z,79.85
2022-09-12T04:37:00.290Z,80.30
2022-09-12T04:39:27.873Z,80.33
2022-09-12T04:41:55.281Z,80.63
2022-09-12T04:44:25.007Z,80.72
2022-09-12T04:47:03.926Z,81.84
2022-09-12T04:50:05.820Z,82.29
2022-09-12T04:52:33.415Z,81.08
2022-09-12T04:55:00.975Z,80.91
2022-09-12T04:57:28.595Z,80.93
2022-09-12T04:59:56.312Z,80.63
2022-09-12T05:02:23.679Z,80.50
2022-09-12T05:04:51.579Z,79.97
2022-09-12T05:07:19.722Z,80.45
2022-09-12T05:09:50.130Z,80.72
2022-09-12T05:12:17.751Z,79.97
2022-09-12T05:14:45.740Z,79.88
2022-09-12T05:17:13.094Z,79.72
2022-09-12T05:19:40.359Z,79.59
2022-09-12T05:22:10.073Z,79.74
2022-09-12T05:24:39.891Z,79.65
2022-09-12T05:27:07.607Z,79.78
2022-09-12T05:29:34.959Z,80.06
2022-09-12T05:32:04.143Z,79.72
2022-09-12T05:34:31.349Z,79.59
2022-09-12T05:37:01.195Z,80.11
2022-09-12T05:39:28.637Z,80.05
2022-09-12T05:41:57.691Z,79.82
2022-09-12T05:44:25.178Z,79.02
2022-09-12T05:46:53.975Z,79.66
2022-09-12T05:49:22.759Z,79.32
2022-09-12T05:51:51.936Z,79.52
2022-09-12T05:54:20.641Z,79.62
2022-09-12T05:56:49.126Z,78.99
2022-09-12T05:59:19.768Z,78.73
2022-09-12T06:01:47.558Z,78.28
2022-09-12T06:04:19.774Z,78.31
2022-09-12T06:06:47.621Z,77.89
2022-09-12T06:09:16.710Z,78.24
2022-09-12T06:11:46.565Z,77.89
2022-09-12T06:14:16.641Z,77.59
2022-09-12T06:16:44.352Z,77.57
2022-09-12T06:19:19.740Z,77.50
2022-09-12T06:21:49.834Z,77.24
2022-09-12T06:24:18.371Z,76.89
2022-09-12T06:26:47.539Z,76.67
2022-09-12T06:29:15.439Z,75.69
2022-09-12T06:31:44.519Z,75.44
2022-09-12T06:34:16.627Z,74.81
2022-09-12T06:36:46.322Z,74.54
2022-09-12T06:39:16.428Z,74.70
2022-09-12T06:41:44.636Z,74.55
2022-09-12T06:44:22.843Z,73.96
2022-09-12T06:46:50.491Z,74.07
2022-09-12T06:49:20.762Z,73.75
2022-09-12T06:51:48.578Z,73.70
2022-09-12T06:54:20.250Z,73.43
2022-09-12T06:56:47.869Z,73.13
2022-09-12T06:59:15.201Z,72.96
2022-09-12T07:01:43.147Z,73.07
2022-09-12T07:04:11.722Z,72.85
2022-09-12T07:06:44.348Z,71.73
2022-09-12T07:09:17.204Z,71.40
2022-09-12T07:11:45.496Z,71.31
2022-09-12T07:14:14.925Z,71.00
2022-09-12T07:16:43.030Z,70.66
2022-09-12T07:19:13.972Z,70.01
2022-09-12T07:21:41.833Z,69.28
2022-09-12T07:24:11.082Z,68.75
2022-09-12T07:26:40.351Z,68.47
2022-09-12T07:31:56.818Z,68.24
2022-09-12T07:34:24.505Z,68.23
2022-09-12T07:36:51.905Z,68.09
2022-09-12T07:39:19.175Z,68.56
2022-09-12T07:41:46.805Z,68.80
2022-09-12T07:44:13.977Z,69.69
2022-09-12T07:46:41.290Z,69.06
2022-09-12T07:49:08.755Z,68.79
2022-09-12T07:51:36.334Z,68.51
2022-09-12T07:54:08.686Z,68.59
2022-09-12T07:56:38.920Z,68.36
2022-09-12T07:59:08.172Z,68.46
2022-09-12T08:01:35.659Z,68.04
2022-09-12T08:04:05.154Z,67.64
2022-09-12T08:06:36.282Z,67.83
2022-09-12T08:09:05.518Z,67.27
2022-09-12T08:11:33.111Z,67.41
2022-09-12T08:14:02.419Z,67.72
2022-09-12T08:16:31.387Z,68.43
2022-09-12T08:19:00.632Z,68.15
2022-09-12T08:21:30.214Z,68.22
2022-09-12T08:24:03.223Z,68.12
2022-09-12T08:26:30.975Z,67.69
2022-09-12T08:28:58.886Z,67.70
2022-09-12T08:31:30.893Z,68.24
2022-09-12T08:33:58.726Z,68.17
2022-09-12T08:36:28.290Z,67.71
2022-09-12T08:39:01.908Z,66.53
2022-09-12T08:41:30.528Z,66.87
2022-09-12T08:44:16.044Z,66.31
2022-09-12T08:47:08.179Z,66.61
2022-09-12T08:49:47.452Z,66.37
2022-09-12T08:52:22.522Z,66.10
2022-09-12T08:54:50.271Z,65.30
2022-09-12T08:57:19.301Z,64.82
2022-09-12T08:59:48.615Z,63.44
2022-09-12T09:02:34.896Z,62.09
2022-09-12T09:05:41.315Z,60.75
2022-09-12T09:08:44.126Z,59.92
2022-09-12T09:11:14.477Z,60.22
2022-09-12T09:14:21.668Z,60.15
2022-09-12T09:16:53.401Z,61.04
2022-09-12T09:19:31.418Z,60.35
2022-09-12T09:22:07.593Z,59.91
2022-09-12T09:24:52.016Z,60.57
2022-09-12T09:27:40.782Z,59.83
2022-09-12T09:30:16.916Z,59.34
2022-09-12T09:32:48.962Z,59.86
2022-09-12T09:35:23.705Z,59.71
2022-09-12T09:38:36.033Z,58.84
2022-09-12T09:41:12.503Z,57.55
2022-09-12T09:43:40.038Z,59.02
2022-09-12T09:46:07.531Z,58.32
2022-09-12T09:48:44.191Z,57.33
2022-09-12T09:51:16.665Z,57.62
2022-09-12T09:54:08.148Z,57.11
2022-09-12T09:56:37.799Z,57.94
2022-09-12T09:59:21.500Z,56.64
2022-09-12T10:01:54.893Z,56.74
2022-09-12T10:04:24.947Z,56.66
2022-09-12T10:10:22.925Z,56.77
2022-09-12T10:13:24.314Z,55.73
2022-09-12T10:16:10.881Z,56.54
2022-09-12T10:19:43.545Z,56.52
2022-09-12T10:22:18.371Z,56.58
2022-09-12T10:24:52.631Z,55.93
2022-09-12T10:27:23.840Z,55.83
2022-09-12T10:29:56.472Z,55.11
2022-09-12T10:32:42.865Z,55.25
2022-09-12T10:35:28.611Z,55.37
2022-09-12T10:38:00.428Z,55.98
2022-09-12T10:40:32.845Z,55.79
2022-09-12T10:43:01.834Z,55.79
2022-09-12T10:45:35.884Z,55.98
2022-09-12T10:48:22.954Z,55.63
2022-09-12T10:50:51.151Z,55.95
2022-09-12T10:53:33.628Z,54.98
2022-09-12T10:56:18.996Z,55.25
2022-09-12T10:58:58.247Z,54.06
2022-09-12T11:01:29.985Z,54.50
2022-09-12T11:04:19.415Z,54.80
2022-09-12T11:07:06.949Z,55.14
2022-09-12T11:10:01.921Z,54.46
2022-09-12T11:12:38.618Z,54.15
2022-09-12T11:15:11.899Z,54.49
2022-09-12T11:18:13.239Z,54.28
2022-09-12T11:21:10.091Z,54.08
2022-09-12T11:23:56.201Z,53.45
2022-09-12T11:26:42.890Z,53.84
2022-09-12T11:29:29.699Z,54.00
2022-09-12T11:32:23.290Z,54.25
2022-09-12T11:35:02.623Z,54.51
2022-09-12T11:37:51.780Z,54.06
2022-09-12T11:40:55.835Z,53.36
2022-09-12T11:43:42.037Z,53.68
2022-09-12T11:46:25.618Z,53.72
2022-09-12T11:49:06.665Z,53.83
2022-09-12T11:51:52.744Z,53.85
2022-09-12T11:54:32.965Z,53.85
2022-09-12T11:57:25.228Z,54.51
2022-09-12T11:59:58.434Z,54.55
2022-09-12T12:02:31.514Z,54.76
2022-09-12T12:05:31.922Z,54.68
2022-09-12T12:08:02.334Z,54.49
2022-09-12T12:10:38.441Z,54.46
2022-09-12T12:13:26.684Z,53.61
2022-09-12T12:16:13.033Z,53.45
2022-09-12T12:18:43.173Z,53.52
2022-09-12T12:21:30.307Z,53.10
2022-09-12T12:24:09.755Z,52.81
2022-09-12T12:26:41.000Z,52.96
2022-09-12T12:29:17.465Z,52.07
2022-09-12T12:32:04.539Z,51.84
2022-09-12T12:34:35.226Z,51.07
2022-09-12T12:37:23.848Z,49.83
2022-09-12T12:40:01.409Z,50.44
2022-09-12T12:42:35.422Z,49.84
2022-09-12T12:45:04.612Z,50.11
2022-09-12T12:47:37.895Z,49.77
2022-09-12T12:50:05.654Z,49.86
2022-09-12T12:52:51.317Z,50.02
2022-09-12T12:55:53.658Z,50.54
2022-09-12T12:58:41.533Z,51.97
2022-09-12T13:01:20.725Z,52.34
2022-09-12T13:03:59.962Z,51.98
2022-09-12T13:06:27.253Z,52.11
2022-09-12T13:09:00.433Z,52.34
2022-09-12T13:11:41.945Z,52.30
2022-09-12T13:14:43.586Z,52.82
2022-09-12T13:17:26.247Z,53.14
2022-09-12T13:20:26.062Z,52.69
2022-09-12T13:22:57.176Z,52.55
2022-09-12T13:25:34.775Z,51.92
2022-09-12T13:28:11.682Z,51.52
2022-09-12T13:30:43.017Z,50.91
2022-09-12T13:33:18.537Z,50.26
2022-09-12T13:36:30.917Z,49.59
2022-09-12T13:39:20.878Z,49.67
2022-09-12T13:42:16.363Z,49.27
2022-09-12T13:44:53.666Z,50.11
2022-09-12T13:47:54.293Z,49.76
2022-09-12T13:50:32.093Z,49.69
2022-09-12T13:53:12.856Z,49.46
2022-09-12T13:55:46.480Z,49.58
2022-09-12T13:58:29.870Z,49.69
2022-09-12T14:01:12.055Z,50.64
2022-09-12T14:04:17.923Z,52.16
2022-09-12T14:06:50.925Z,52.40
2022-09-12T14:09:31.610Z,52.73
2022-09-12T14:11:59.652Z,52.88
2022-09-12T14:14:34.245Z,53.19
2022-09-12T14:17:24.825Z,53.57
2022-09-12T14:19:53.075Z,53.56
2022-09-12T14:22:20.551Z,54.23
2022-09-12T14:24:50.758Z,54.16
2022-09-12T14:27:20.105Z,54.19
2022-09-12T14:29:47.994Z,53.78
2022-09-12T14:32:25.067Z,54.31
2022-09-12T14:35:19.246Z,53.93
2022-09-12T14:37:49.988Z,53.64
2022-09-12T14:40:23.874Z,54.17
2022-09-12T14:42:55.216Z,53.74
2022-09-12T14:45:32.600Z,54.02
2022-09-12T14:47:59.981Z,53.73
2022-09-12T14:50:32.219Z,54.30
2022-09-12T14:53:05.022Z,54.44
2022-09-12T14:55:35.518Z,54.74
2022-09-12T14:58:15.076Z,54.89
2022-09-12T15:01:00.208Z,55.02
2022-09-12T15:03:43.883Z,54.97
2022-09-12T15:06:31.576Z,55.13
2022-09-12T15:09:06.251Z,55.04
2022-09-12T15:11:34.070Z,54.95
2022-09-12T15:14:17.657Z,55.37
2022-09-12T15:16:45.062Z,55.14
2022-09-12T15:19:13.946Z,55.33
2022-09-12T15:22:12.899Z,55.34
2022-09-12T15:25:19.161Z,55.38
2022-09-12T15:28:11.940Z,55.31
2022-09-12T15:30:43.032Z,55.56
2022-09-12T15:33:12.352Z,55.21
2022-09-12T15:36:05.475Z,55.42
2022-09-12T15:39:14.946Z,55.18
2022-09-12T15:41:50.566Z,55.50
2022-09-12T15:44:17.847Z,55.53
2022-09-12T15:46:47.979Z,55.90
2022-09-12T15:49:15.450Z,55.61
2022-09-12T15:51:45.622Z,55.68
2022-09-12T15:54:15.538Z,55.85
2022-09-12T15:56:44.121Z,56.33
2022-09-12T15:59:11.384Z,55.82
2022-09-12T16:01:44.122Z,56.75
2022-09-12T16:04:37.787Z,57.45
2022-09-12T16:07:06.072Z,56.65
2022-09-12T16:09:33.905Z,56.54
2022-09-12T16:12:02.833Z,56.98
2022-09-12T16:14:30.144Z,57.11
2022-09-12T16:16:57.473Z,56.79
2022-09-12T16:19:28.125Z,56.71
2022-09-12T16:21:55.580Z,56.77
2022-09-12T16:24:22.913Z,57.13
2022-09-12T16:26:50.402Z,57.16
2022-09-12T16:29:20.686Z,57.20
2022-09-12T16:31:50.990Z,56.98
2022-09-12T16:34:18.348Z,57.20
2022-09-12T16:36:46.219Z,56.93
2022-09-12T16:39:14.176Z,57.43
2022-09-12T16:41:44.030Z,57.43
2022-09-12T16:44:11.369Z,57.01
2022-09-12T16:46:38.757Z,57.17
2022-09-12T16:49:06.655Z,57.50
2022-09-12T16:51:36.184Z,57.57
2022-09-12T16:54:04.294Z,58.35
2022-09-12T16:56:34.953Z,58.28
2022-09-12T16:59:02.176Z,58.13
2022-09-12T17:01:31.250Z,57.91
2022-09-12T17:04:01.035Z,57.87
2022-09-12T17:06:29.185Z,57.65
2022-09-12T17:09:01.065Z,57.24
2022-09-12T17:11:36.753Z,57.30
2022-09-12T17:14:07.561Z,57.56
2022-09-12T17:16:40.098Z,57.12
2022-09-12T17:19:08.700Z,57.31
2022-09-12T17:21:41.803Z,56.95
2022-09-12T17:24:09.135Z,56.19
2022-09-12T17:26:36.724Z,56.59
2022-09-12T17:29:04.314Z,56.18
2022-09-12T17:31:32.315Z,56.36
2022-09-12T17:34:01.239Z,56.33
2022-09-12T17:36:29.626Z,56.21
2022-09-12T17:38:56.987Z,56.61
2022-09-12T17:41:26.886Z,56.18
2022-09-12T17:43:58.734Z,56.01
2022-09-12T17:46:40.640Z,55.76
2022-09-12T17:49:12.604Z,56.48
2022-09-12T17:51:59.367Z,55.99
2022-09-12T17:54:37.386Z,55.99
2022-09-12T17:57:10.941Z,55.99
2022-09-12T17:59:41.498Z,56.07
2022-09-12T18:02:15.148Z,55.84
2022-09-12T18:04:47.072Z,56.31
2022-09-12T18:07:19.593Z,55.90
2022-09-12T18:09:48.160Z,56.09
2022-09-12T18:12:20.950Z,55.68
2022-09-12T18:14:48.441Z,55.96
2022-09-12T18:17:18.597Z,55.87
2022-09-12T18:19:52.873Z,55.77
2022-09-12T18:22:21.020Z,56.10
2022-09-12T18:24:49.049Z,56.27
2022-09-12T18:27:17.320Z,55.82
2022-09-12T18:29:58.912Z,56.55
2022-09-12T18:32:32.937Z,55.90
2022-09-12T18:35:05.329Z,56.45
2022-09-12T18:37:57.722Z,56.35
2022-09-12T18:41:31.557Z,56.89
2022-09-12T18:44:03.043Z,56.53
2022-09-12T18:46:31.708Z,56.52
2022-09-12T18:49:00.496Z,56.80
2022-09-12T18:51:33.050Z,56.69
2022-09-12T18:54:07.125Z,56.94
2022-09-12T18:56:39.021Z,56.62
2022-09-12T18:59:07.427Z,56.91
2022-09-12T19:02:01.456Z,57.26
2022-09-12T19:04:28.892Z,56.81
2022-09-12T19:06:56.393Z,57.51
2022-09-12T19:09:24.321Z,58.23
2022-09-12T19:11:52.907Z,57.62
2022-09-12T19:14:42.439Z,58.89
2022-09-12T19:17:10.367Z,58.68
2022-09-12T19:19:40.501Z,59.12
2022-09-12T19:22:08.126Z,59.25
2022-09-12T19:24:35.928Z,58.66
2022-09-12T19:27:03.403Z,58.30
2022-09-12T19:29:31.489Z,58.70
2022-09-12T19:31:58.849Z,58.47
2022-09-12T19:34:26.470Z,58.82
2022-09-12T19:36:54.883Z,58.41
2022-09-12T19:39:24.140Z,58.69
2022-09-12T19:41:51.524Z,58.74
2022-09-12T19:44:22.662Z,58.44
2022-09-12T19:46:50.130Z,58.24
2022-09-12T19:49:17.921Z,58.01
2022-09-12T19:51:50.063Z,58.38
2022-09-12T19:54:18.469Z,58.14
2022-09-12T19:56:46.036Z,58.91
2022-09-12T19:59:13.982Z,58.88
2022-09-12T20:01:44.274Z,59.09
2022-09-12T20:04:12.076Z,59.09
2022-09-12T20:06:39.210Z,59.25
2022-09-12T20:09:10.362Z,58.92
2022-09-12T20:12:56.467Z,59.87
2022-09-12T20:15:23.874Z,59.37
2022-09-12T20:17:55.787Z,59.46
2022-09-12T20:20:27.888Z,59.08
2022-09-12T20:22:55.441Z,59.61
2022-09-12T20:25:22.844Z,59.55
2022-09-12T20:27:50.325Z,59.45
2022-09-12T20:30:17.751Z,59.51
2022-09-12T20:32:45.182Z,59.58
2022-09-12T20:35:12.416Z,60.11
2022-09-12T20:37:40.894Z,59.80
2022-09-12T20:40:10.459Z,59.71
2022-09-12T20:42:37.987Z,60.14
2022-09-12T20:45:05.864Z,60.24
2022-09-12T20:47:33.219Z,59.68
2022-09-12T20:50:03.452Z,60.02
2022-09-12T20:52:32.151Z,59.36
2022-09-12T20:54:59.468Z,59.79
2022-09-12T20:57:28.759Z,59.92
2022-09-12T20:59:55.923Z,59.85
2022-09-12T21:02:23.395Z,59.87
2022-09-12T21:04:51.288Z,59.67
2022-09-12T21:07:18.556Z,59.73
2022-09-12T21:09:46.034Z,59.85
2022-09-12T21:12:13.829Z,59.82
2022-09-12T21:14:41.470Z,59.72
2022-09-12T21:17:08.937Z,59.95
2022-09-12T21:19:36.470Z,60.19
2022-09-12T21:22:04.077Z,60.13
2022-09-12T21:24:31.639Z,59.98
2022-09-12T21:27:03.481Z,60.48
2022-09-12T21:29:31.515Z,60.18
2022-09-12T21:33:22.439Z,60.69
2022-09-12T21:35:50.352Z,60.00
2022-09-12T21:38:18.880Z,60.23
2022-09-12T21:40:47.875Z,60.58
2022-09-12T21:43:15.865Z,60.27
2022-09-12T21:45:47.313Z,60.54
2022-09-12T21:48:16.837Z,60.86
2022-09-12T21:51:12.828Z,61.37
2022-09-12T21:53:40.008Z,61.01
2022-09-12T21:56:08.769Z,61.15
2022-09-12T21:58:38.223Z,61.10
2022-09-12T22:01:12.254Z,61.32
2022-09-12T22:03:40.556Z,60.82
2022-09-12T22:06:08.000Z,61.01
2022-09-12T22:08:37.612Z,61.16
2022-09-12T22:11:13.038Z,61.27
2022-09-12T22:13:44.415Z,61.28
2022-09-12T22:16:12.547Z,61.33
2022-09-12T22:18:40.457Z,61.56
2022-09-12T22:21:16.431Z,61.45
2022-09-12T22:24:03.148Z,61.20
2022-09-12T22:26:44.396Z,61.72
2022-09-12T22:29:14.892Z,61.96
2022-09-12T22:31:46.436Z,61.82
2022-09-12T22:34:14.775Z,62.15
2022-09-12T22:36:42.390Z,61.85
2022-09-12T22:39:12.892Z,62.17
2022-09-12T22:41:51.181Z,62.48
2022-09-12T22:44:20.345Z,62.13
2022-09-12T22:46:52.229Z,62.55
2022-09-12T22:49:20.537Z,62.14
2022-09-12T22:51:50.816Z,62.05
2022-09-12T22:54:18.313Z,62.83
2022-09-12T22:56:51.578Z,62.83
2022-09-12T22:59:21.757Z,62.60
2022-09-12T23:01:52.185Z,62.92
2022-09-12T23:04:19.953Z,63.01
2022-09-12T23:06:47.633Z,62.87
2022-09-12T23:09:15.209Z,62.89
2022-09-12T23:11:42.835Z,63.26
2022-09-12T23:14:10.329Z,63.02
2022-09-12T23:16:37.931Z,63.07
2022-09-12T23:19:05.393Z,63.37
2022-09-12T23:21:38.082Z,63.71
2022-09-12T23:24:06.078Z,63.38
2022-09-12T23:26:33.654Z,63.41
2022-09-12T23:29:02.726Z,63.61
2022-09-12T23:31:34.008Z,63.53
2022-09-12T23:34:03.403Z,63.52
2022-09-12T23:36:32.186Z,63.14
2022-09-12T23:38:59.551Z,63.42
2022-09-12T23:41:29.961Z,63.36
2022-09-12T23:43:58.624Z,63.46
2022-09-12T23:46:25.954Z,63.40
2022-09-12T23:48:55.889Z,63.10
2022-09-12T23:51:23.414Z,63.97
2022-09-12T23:53:51.208Z,63.71
2022-09-12T23:56:18.448Z,63.80
2022-09-12T23:58:47.468Z,63.88
